sensor_id;sensor_type;location;lat;lon;timestamp;temperature;humidity
10536;DHT22;5316;49.538;8.352;2022-10-31T00:01:23;13.50;99.90
10536;DHT22;5316;49.538;8.352;2022-10-31T00:03:49;13.50;99.90
10536;DHT22;5316;49.538;8.352;2022-10-31T00:06:16;13.50;99.90
10536;DHT22;5316;49.538;8.352;2022-10-31T00:08:44;13.50;99.90
10536;DHT22;5316;49.538;8.352;2022-10-31T00:11:11;13.50;99.90
10536;DHT22;5316;49.538;8.352;2022-10-31T00:13:39;13.40;99.90
10536;DHT22;5316;49.538;8.352;2022-10-31T00:16:13;13.40;99.90
10536;DHT22;5316;49.538;8.352;2022-10-31T00:18:40;13.40;99.90
10536;DHT22;5316;49.538;8.352;2022-10-31T00:21:07;13.30;99.90
10536;DHT22;5316;49.538;8.352;2022-10-31T00:23:33;13.30;99.90
10536;DHT22;5316;49.538;8.352;2022-10-31T00:26:01;13.30;99.90
10536;DHT22;5316;49.538;8.352;2022-10-31T00:28:28;13.30;99.90
10536;DHT22;5316;49.538;8.352;2022-10-31T00:30:59;13.30;99.90
10536;DHT22;5316;49.538;8.352;2022-10-31T00:33:26;13.30;99.90
10536;DHT22;5316;49.538;8.352;2022-10-31T00:35:53;13.30;99.90
10536;DHT22;5316;49.538;8.352;2022-10-31T00:38:20;13.20;99.90
10536;DHT22;5316;49.538;8.352;2022-10-31T00:40:47;13.20;99.90
10536;DHT22;5316;49.538;8.352;2022-10-31T00:43:13;13.10;99.90
10536;DHT22;5316;49.538;8.352;2022-10-31T00:45:41;13.10;99.90
10536;DHT22;5316;49.538;8.352;2022-10-31T00:48:09;13.10;99.90
10536;DHT22;5316;49.538;8.352;2022-10-31T00:50:36;13.00;99.90
10536;DHT22;5316;49.538;8.352;2022-10-31T00:53:03;13.10;99.90
10536;DHT22;5316;49.538;8.352;2022-10-31T00:55:30;13.00;99.90
10536;DHT22;5316;49.538;8.352;2022-10-31T00:57:56;13.00;99.90
10536;DHT22;5316;49.538;8.352;2022-10-31T01:00:23;13.00;99.90
10536;DHT22;5316;49.538;8.352;2022-10-31T01:02:50;13.00;99.90
10536;DHT22;5316;49.538;8.352;2022-10-31T01:05:18;13.00;99.90
10536;DHT22;5316;49.538;8.352;2022-10-31T01:07:45;13.00;99.90
10536;DHT22;5316;49.538;8.352;2022-10-31T01:10:12;13.00;99.90
10536;DHT22;5316;49.538;8.352;2022-10-31T01:12:41;13.00;99.90
10536;DHT22;5316;49.538;8.352;2022-10-31T01:15:09;13.00;99.90
10536;DHT22;5316;49.538;8.352;2022-10-31T01:17:36;13.00;99.90
10536;DHT22;5316;49.538;8.352;2022-10-31T01:20:04;13.00;99.90
10536;DHT22;5316;49.538;8.352;2022-10-31T01:22:33;13.00;99.90
10536;DHT22;5316;49.538;8.352;2022-10-31T01:25:00;13.00;99.90
10536;DHT22;5316;49.538;8.352;2022-10-31T01:27:27;13.00;99.90
10536;DHT22;5316;49.538;8.352;2022-10-31T01:29:53;12.90;99.90
10536;DHT22;5316;49.538;8.352;2022-10-31T01:32:20;13.00;99.90
10536;DHT22;5316;49.538;8.352;2022-10-31T01:34:47;12.90;99.90
10536;DHT22;5316;49.538;8.352;2022-10-31T01:37:14;12.90;99.90
10536;DHT22;5316;49.538;8.352;2022-10-31T01:39:42;12.90;99.90
10536;DHT22;5316;49.538;8.352;2022-10-31T01:42:17;12.90;99.90
10536;DHT22;5316;49.538;8.352;2022-10-31T01:44:52;12.90;99.90
10536;DHT22;5316;49.538;8.352;2022-10-31T01:47:25;12.90;99.90
10536;DHT22;5316;49.538;8.352;2022-10-31T01:49:57;12.90;99.90
10536;DHT22;5316;49.538;8.352;2022-10-31T01:52:29;12.90;99.90
10536;DHT22;5316;49.538;8.352;2022-10-31T01:55:01;12.90;99.90
10536;DHT22;5316;49.538;8.352;2022-10-31T01:57:32;12.90;99.90
10536;DHT22;5316;49.538;8.352;2022-10-31T02:00:02;12.90;99.90
10536;DHT22;5316;49.538;8.352;2022-10-31T02:02:30;12.90;99.90
10536;DHT22;5316;49.538;8.352;2022-10-31T02:05:00;12.90;99.90
10536;DHT22;5316;49.538;8.352;2022-10-31T02:07:31;12.90;99.90
10536;DHT22;5316;49.538;8.352;2022-10-31T02:10:02;12.80;99.90
10536;DHT22;5316;49.538;8.352;2022-10-31T02:12:30;12.80;99.90
10536;DHT22;5316;49.538;8.352;2022-10-31T02:14:58;12.80;99.90
10536;DHT22;5316;49.538;8.352;2022-10-31T02:17:26;12.80;99.90
10536;DHT22;5316;49.538;8.352;2022-10-31T02:19:59;12.80;99.90
10536;DHT22;5316;49.538;8.352;2022-10-31T02:22:30;12.80;99.90
10536;DHT22;5316;49.538;8.352;2022-10-31T02:25:20;12.80;99.90
10536;DHT22;5316;49.538;8.352;2022-10-31T02:28:06;12.70;99.90
10536;DHT22;5316;49.538;8.352;2022-10-31T02:30:53;12.70;99.90
10536;DHT22;5316;49.538;8.352;2022-10-31T02:33:25;12.70;99.90
10536;DHT22;5316;49.538;8.352;2022-10-31T02:36:03;12.70;99.90
10536;DHT22;5316;49.538;8.352;2022-10-31T02:38:42;12.70;99.90
10536;DHT22;5316;49.538;8.352;2022-10-31T02:41:19;12.70;99.90
10536;DHT22;5316;49.538;8.352;2022-10-31T02:43:54;12.70;99.90
10536;DHT22;5316;49.538;8.352;2022-10-31T02:46:30;12.70;99.90
10536;DHT22;5316;49.538;8.352;2022-10-31T02:49:03;12.70;99.90
10536;DHT22;5316;49.538;8.352;2022-10-31T02:51:31;12.70;99.90
10536;DHT22;5316;49.538;8.352;2022-10-31T02:53:58;12.70;99.90
10536;DHT22;5316;49.538;8.352;2022-10-31T02:56:24;12.70;99.90
10536;DHT22;5316;49.538;8.352;2022-10-31T02:58:54;12.60;99.90
10536;DHT22;5316;49.538;8.352;2022-10-31T03:01:47;12.60;99.90
10536;DHT22;5316;49.538;8.352;2022-10-31T03:04:32;12.50;99.90
10536;DHT22;5316;49.538;8.352;2022-10-31T03:07:07;12.40;99.90
10536;DHT22;5316;49.538;8.352;2022-10-31T03:09:41;12.40;99.90
10536;DHT22;5316;49.538;8.352;2022-10-31T03:12:14;12.30;99.90
10536;DHT22;5316;49.538;8.352;2022-10-31T03:14:43;12.20;99.90
10536;DHT22;5316;49.538;8.352;2022-10-31T03:17:20;12.20;99.90
10536;DHT22;5316;49.538;8.352;2022-10-31T03:19:49;12.10;99.90
10536;DHT22;5316;49.538;8.352;2022-10-31T03:22:21;12.10;99.90
10536;DHT22;5316;49.538;8.352;2022-10-31T03:24:48;12.20;99.90
10536;DHT22;5316;49.538;8.352;2022-10-31T03:27:20;12.10;99.90
10536;DHT22;5316;49.538;8.352;2022-10-31T03:29:49;12.10;99.90
10536;DHT22;5316;49.538;8.352;2022-10-31T03:32:20;12.10;99.90
10536;DHT22;5316;49.538;8.352;2022-10-31T03:34:50;12.10;99.90
10536;DHT22;5316;49.538;8.352;2022-10-31T03:37:19;12.20;99.90
10536;DHT22;5316;49.538;8.352;2022-10-31T03:39:48;12.20;99.90
10536;DHT22;5316;49.538;8.352;2022-10-31T03:42:17;12.20;99.90
10536;DHT22;5316;49.538;8.352;2022-10-31T03:44:48;12.20;99.90
10536;DHT22;5316;49.538;8.352;2022-10-31T03:47:17;12.20;99.90
10536;DHT22;5316;49.538;8.352;2022-10-31T03:49:44;12.30;99.90
10536;DHT22;5316;49.538;8.352;2022-10-31T03:52:17;12.30;99.90
10536;DHT22;5316;49.538;8.352;2022-10-31T03:54:49;12.30;99.90
10536;DHT22;5316;49.538;8.352;2022-10-31T03:57:21;12.30;99.90
10536;DHT22;5316;49.538;8.352;2022-10-31T03:59:53;12.40;99.90
10536;DHT22;5316;49.538;8.352;2022-10-31T04:02:27;12.40;99.90
10536;DHT22;5316;49.538;8.352;2022-10-31T04:04:55;12.40;99.90
10536;DHT22;5316;49.538;8.352;2022-10-31T04:07:26;12.40;99.90
10536;DHT22;5316;49.538;8.352;2022-10-31T04:09:55;12.30;99.90
10536;DHT22;5316;49.538;8.352;2022-10-31T04:12:24;12.30;99.90
10536;DHT22;5316;49.538;8.352;2022-10-31T04:14:52;12.30;99.90
10536;DHT22;5316;49.538;8.352;2022-10-31T04:17:23;12.30;99.90
10536;DHT22;5316;49.538;8.352;2022-10-31T04:19:50;12.20;99.90
10536;DHT22;5316;49.538;8.352;2022-10-31T04:22:16;12.20;99.90
10536;DHT22;5316;49.538;8.352;2022-10-31T04:24:43;12.10;99.90
10536;DHT22;5316;49.538;8.352;2022-10-31T04:27:11;12.10;99.90
10536;DHT22;5316;49.538;8.352;2022-10-31T04:29:38;12.00;99.90
10536;DHT22;5316;49.538;8.352;2022-10-31T04:32:04;12.00;99.90
10536;DHT22;5316;49.538;8.352;2022-10-31T04:34:32;12.00;99.90
10536;DHT22;5316;49.538;8.352;2022-10-31T04:36:59;12.00;99.90
10536;DHT22;5316;49.538;8.352;2022-10-31T04:39:26;11.90;99.90
10536;DHT22;5316;49.538;8.352;2022-10-31T04:41:53;11.90;99.90
10536;DHT22;5316;49.538;8.352;2022-10-31T04:44:20;11.80;99.90
10536;DHT22;5316;49.538;8.352;2022-10-31T04:46:46;11.70;99.90
10536;DHT22;5316;49.538;8.352;2022-10-31T04:49:13;11.70;99.90
10536;DHT22;5316;49.538;8.352;2022-10-31T04:51:41;11.60;99.90
10536;DHT22;5316;49.538;8.352;2022-10-31T04:54:08;11.60;99.90
10536;DHT22;5316;49.538;8.352;2022-10-31T04:56:35;11.60;99.90
10536;DHT22;5316;49.538;8.352;2022-10-31T04:59:02;11.60;99.90
10536;DHT22;5316;49.538;8.352;2022-10-31T05:01:29;11.60;99.90
10536;DHT22;5316;49.538;8.352;2022-10-31T05:03:55;11.60;99.90
10536;DHT22;5316;49.538;8.352;2022-10-31T05:06:22;11.60;99.90
10536;DHT22;5316;49.538;8.352;2022-10-31T05:08:50;11.60;99.90
10536;DHT22;5316;49.538;8.352;2022-10-31T05:11:17;11.60;99.90
10536;DHT22;5316;49.538;8.352;2022-10-31T05:13:44;11.60;99.90
10536;DHT22;5316;49.538;8.352;2022-10-31T05:16:11;11.60;99.90
10536;DHT22;5316;49.538;8.352;2022-10-31T05:18:37;11.60;99.90
10536;DHT22;5316;49.538;8.352;2022-10-31T05:21:04;11.60;99.90
10536;DHT22;5316;49.538;8.352;2022-10-31T05:23:31;11.70;99.90
10536;DHT22;5316;49.538;8.352;2022-10-31T05:25:59;11.70;99.90
10536;DHT22;5316;49.538;8.352;2022-10-31T05:28:26;11.70;99.90
10536;DHT22;5316;49.538;8.352;2022-10-31T05:30:52;11.60;99.90
10536;DHT22;5316;49.538;8.352;2022-10-31T05:33:19;11.60;99.90
10536;DHT22;5316;49.538;8.352;2022-10-31T05:35:46;11.60;99.90
10536;DHT22;5316;49.538;8.352;2022-10-31T05:38:13;11.60;99.90
10536;DHT22;5316;49.538;8.352;2022-10-31T05:40:39;11.50;99.90
10536;DHT22;5316;49.538;8.352;2022-10-31T05:43:07;11.60;99.90
10536;DHT22;5316;49.538;8.352;2022-10-31T05:45:34;11.60;99.90
10536;DHT22;5316;49.538;8.352;2022-10-31T05:48:02;11.60;99.90
10536;DHT22;5316;49.538;8.352;2022-10-31T05:50:31;11.70;99.90
10536;DHT22;5316;49.538;8.352;2022-10-31T05:52:59;11.70;99.90
10536;DHT22;5316;49.538;8.352;2022-10-31T05:55:27;11.70;99.90
10536;DHT22;5316;49.538;8.352;2022-10-31T05:57:54;11.70;99.90
10536;DHT22;5316;49.538;8.352;2022-10-31T06:00:23;11.70;99.90
10536;DHT22;5316;49.538;8.352;2022-10-31T06:02:57;11.80;99.90
10536;DHT22;5316;49.538;8.352;2022-10-31T06:05:24;11.70;99.90
10536;DHT22;5316;49.538;8.352;2022-10-31T06:07:51;11.80;99.90
10536;DHT22;5316;49.538;8.352;2022-10-31T06:10:18;11.80;99.90
10536;DHT22;5316;49.538;8.352;2022-10-31T06:12:46;11.80;99.90
10536;DHT22;5316;49.538;8.352;2022-10-31T06:15:13;11.80;99.90
10536;DHT22;5316;49.538;8.352;2022-10-31T06:17:41;11.80;99.90
10536;DHT22;5316;49.538;8.352;2022-10-31T06:20:09;11.90;99.90
10536;DHT22;5316;49.538;8.352;2022-10-31T06:22:36;11.90;99.90
10536;DHT22;5316;49.538;8.352;2022-10-31T06:25:03;11.90;99.90
10536;DHT22;5316;49.538;8.352;2022-10-31T06:27:30;12.00;99.90
10536;DHT22;5316;49.538;8.352;2022-10-31T06:29:57;12.00;99.90
10536;DHT22;5316;49.538;8.352;2022-10-31T06:32:23;12.00;99.90
10536;DHT22;5316;49.538;8.352;2022-10-31T06:34:51;12.10;99.90
10536;DHT22;5316;49.538;8.352;2022-10-31T06:37:18;12.00;99.90
10536;DHT22;5316;49.538;8.352;2022-10-31T06:39:45;12.10;99.90
10536;DHT22;5316;49.538;8.352;2022-10-31T06:42:11;12.10;99.90
10536;DHT22;5316;49.538;8.352;2022-10-31T06:44:39;12.10;99.90
10536;DHT22;5316;49.538;8.352;2022-10-31T06:47:06;12.10;99.90
10536;DHT22;5316;49.538;8.352;2022-10-31T06:49:33;12.10;99.90
10536;DHT22;5316;49.538;8.352;2022-10-31T06:52:01;12.20;99.90
10536;DHT22;5316;49.538;8.352;2022-10-31T06:54:28;12.20;99.90
10536;DHT22;5316;49.538;8.352;2022-10-31T06:56:55;12.20;99.90
10536;DHT22;5316;49.538;8.352;2022-10-31T06:59:21;12.20;99.90
10536;DHT22;5316;49.538;8.352;2022-10-31T07:01:49;12.30;99.90
10536;DHT22;5316;49.538;8.352;2022-10-31T07:04:16;12.30;99.90
10536;DHT22;5316;49.538;8.352;2022-10-31T07:06:43;12.30;99.90
10536;DHT22;5316;49.538;8.352;2022-10-31T07:09:11;12.40;99.90
10536;DHT22;5316;49.538;8.352;2022-10-31T07:11:38;12.40;99.90
10536;DHT22;5316;49.538;8.352;2022-10-31T07:14:05;12.50;99.90
10536;DHT22;5316;49.538;8.352;2022-10-31T07:16:32;12.50;99.90
10536;DHT22;5316;49.538;8.352;2022-10-31T07:18:58;12.60;99.90
10536;DHT22;5316;49.538;8.352;2022-10-31T07:21:25;12.60;99.90
10536;DHT22;5316;49.538;8.352;2022-10-31T07:23:52;12.70;99.90
10536;DHT22;5316;49.538;8.352;2022-10-31T07:26:20;12.70;99.90
10536;DHT22;5316;49.538;8.352;2022-10-31T07:28:47;12.70;99.90
10536;DHT22;5316;49.538;8.352;2022-10-31T07:31:14;12.80;99.90
10536;DHT22;5316;49.538;8.352;2022-10-31T07:33:40;12.80;99.90
10536;DHT22;5316;49.538;8.352;2022-10-31T07:36:07;12.90;99.90
10536;DHT22;5316;49.538;8.352;2022-10-31T07:38:34;12.90;99.90
10536;DHT22;5316;49.538;8.352;2022-10-31T07:41:01;13.00;99.90
10536;DHT22;5316;49.538;8.352;2022-10-31T07:43:29;13.00;99.90
10536;DHT22;5316;49.538;8.352;2022-10-31T07:46:11;13.00;99.90
10536;DHT22;5316;49.538;8.352;2022-10-31T08:17:38;13.70;99.90
10536;DHT22;5316;49.538;8.352;2022-10-31T08:20:06;13.80;99.90
10536;DHT22;5316;49.538;8.352;2022-10-31T08:22:33;13.80;99.90
10536;DHT22;5316;49.538;8.352;2022-10-31T08:25:00;13.90;99.90
10536;DHT22;5316;49.538;8.352;2022-10-31T08:27:32;13.90;99.90
10536;DHT22;5316;49.538;8.352;2022-10-31T08:29:59;14.00;99.90
10536;DHT22;5316;49.538;8.352;2022-10-31T08:32:26;14.00;99.90
10536;DHT22;5316;49.538;8.352;2022-10-31T08:34:54;14.00;99.90
10536;DHT22;5316;49.538;8.352;2022-10-31T08:37:21;14.10;99.90
10536;DHT22;5316;49.538;8.352;2022-10-31T08:39:48;14.10;99.90
10536;DHT22;5316;49.538;8.352;2022-10-31T08:42:15;14.00;99.90
10536;DHT22;5316;49.538;8.352;2022-10-31T08:44:42;14.10;99.90
10536;DHT22;5316;49.538;8.352;2022-10-31T08:47:08;14.30;99.90
10536;DHT22;5316;49.538;8.352;2022-10-31T08:49:35;14.30;99.90
10536;DHT22;5316;49.538;8.352;2022-10-31T08:52:03;14.40;99.90
10536;DHT22;5316;49.538;8.352;2022-10-31T08:54:31;14.50;99.90
10536;DHT22;5316;49.538;8.352;2022-10-31T08:56:57;14.50;99.90
10536;DHT22;5316;49.538;8.352;2022-10-31T08:59:24;14.50;99.90
10536;DHT22;5316;49.538;8.352;2022-10-31T09:01:51;14.50;99.90
10536;DHT22;5316;49.538;8.352;2022-10-31T09:04:18;14.50;99.90
10536;DHT22;5316;49.538;8.352;2022-10-31T09:06:45;14.50;99.90
10536;DHT22;5316;49.538;8.352;2022-10-31T09:09:13;14.60;99.90
10536;DHT22;5316;49.538;8.352;2022-10-31T09:11:40;14.60;99.90
10536;DHT22;5316;49.538;8.352;2022-10-31T09:14:07;14.70;99.90
10536;DHT22;5316;49.538;8.352;2022-10-31T09:16:34;14.70;99.90
10536;DHT22;5316;49.538;8.352;2022-10-31T09:19:01;14.70;99.90
10536;DHT22;5316;49.538;8.352;2022-10-31T09:21:28;14.70;99.90
10536;DHT22;5316;49.538;8.352;2022-10-31T09:23:55;14.70;99.90
10536;DHT22;5316;49.538;8.352;2022-10-31T09:26:23;14.70;99.90
10536;DHT22;5316;49.538;8.352;2022-10-31T09:28:50;14.80;99.90
10536;DHT22;5316;49.538;8.352;2022-10-31T09:31:17;14.80;99.90
10536;DHT22;5316;49.538;8.352;2022-10-31T09:33:44;14.90;99.90
10536;DHT22;5316;49.538;8.352;2022-10-31T09:36:11;14.90;99.90
10536;DHT22;5316;49.538;8.352;2022-10-31T09:38:38;15.00;99.90
10536;DHT22;5316;49.538;8.352;2022-10-31T09:41:11;15.10;99.90
10536;DHT22;5316;49.538;8.352;2022-10-31T09:43:50;15.20;99.90
10536;DHT22;5316;49.538;8.352;2022-10-31T09:46:27;15.40;99.90
10536;DHT22;5316;49.538;8.352;2022-10-31T09:49:27;15.40;99.90
10536;DHT22;5316;49.538;8.352;2022-10-31T09:52:00;15.50;99.90
10536;DHT22;5316;49.538;8.352;2022-10-31T09:54:35;15.60;99.90
10536;DHT22;5316;49.538;8.352;2022-10-31T09:57:05;15.70;99.90
10536;DHT22;5316;49.538;8.352;2022-10-31T09:59:37;15.80;99.90
10536;DHT22;5316;49.538;8.352;2022-10-31T10:02:12;15.80;99.90
10536;DHT22;5316;49.538;8.352;2022-10-31T10:04:44;15.90;99.90
10536;DHT22;5316;49.538;8.352;2022-10-31T10:07:19;16.10;99.90
10536;DHT22;5316;49.538;8.352;2022-10-31T10:09:48;15.90;99.90
10536;DHT22;5316;49.538;8.352;2022-10-31T10:12:21;15.90;99.90
10536;DHT22;5316;49.538;8.352;2022-10-31T10:15:16;16.00;99.90
10536;DHT22;5316;49.538;8.352;2022-10-31T10:17:56;16.10;99.90
10536;DHT22;5316;49.538;8.352;2022-10-31T10:20:32;16.10;99.90
10536;DHT22;5316;49.538;8.352;2022-10-31T10:23:14;16.20;99.90
10536;DHT22;5316;49.538;8.352;2022-10-31T10:25:47;16.30;99.90
10536;DHT22;5316;49.538;8.352;2022-10-31T10:28:23;16.40;99.90
10536;DHT22;5316;49.538;8.352;2022-10-31T10:30:57;16.40;99.90
10536;DHT22;5316;49.538;8.352;2022-10-31T10:33:30;16.50;99.90
10536;DHT22;5316;49.538;8.352;2022-10-31T10:35:59;16.60;99.90
10536;DHT22;5316;49.538;8.352;2022-10-31T10:38:32;16.70;99.90
10536;DHT22;5316;49.538;8.352;2022-10-31T10:41:02;16.80;99.90
10536;DHT22;5316;49.538;8.352;2022-10-31T10:43:34;16.80;99.90
10536;DHT22;5316;49.538;8.352;2022-10-31T10:46:19;16.90;99.90
10536;DHT22;5316;49.538;8.352;2022-10-31T10:49:14;16.90;99.90
10536;DHT22;5316;49.538;8.352;2022-10-31T10:51:45;17.00;99.90
10536;DHT22;5316;49.538;8.352;2022-10-31T11:00:00;17.00;99.90
10536;DHT22;5316;49.538;8.352;2022-10-31T11:02:32;17.10;99.90
10536;DHT22;5316;49.538;8.352;2022-10-31T11:05:01;17.20;99.90
10536;DHT22;5316;49.538;8.352;2022-10-31T11:07:37;17.20;99.90
10536;DHT22;5316;49.538;8.352;2022-10-31T11:10:05;17.30;99.90
10536;DHT22;5316;49.538;8.352;2022-10-31T11:12:38;17.30;99.90
10536;DHT22;5316;49.538;8.352;2022-10-31T11:15:08;17.40;99.90
10536;DHT22;5316;49.538;8.352;2022-10-31T11:17:48;17.50;99.90
10536;DHT22;5316;49.538;8.352;2022-10-31T11:20:28;17.60;99.90
10536;DHT22;5316;49.538;8.352;2022-10-31T11:23:14;17.60;99.90
10536;DHT22;5316;49.538;8.352;2022-10-31T11:25:48;17.70;99.90
10536;DHT22;5316;49.538;8.352;2022-10-31T11:28:16;17.80;99.90
10536;DHT22;5316;49.538;8.352;2022-10-31T11:30:46;17.90;99.90
10536;DHT22;5316;49.538;8.352;2022-10-31T11:33:22;18.00;99.90
10536;DHT22;5316;49.538;8.352;2022-10-31T11:35:52;18.00;99.90
10536;DHT22;5316;49.538;8.352;2022-10-31T11:38:22;18.00;99.90
10536;DHT22;5316;49.538;8.352;2022-10-31T11:40:54;18.10;99.90
10536;DHT22;5316;49.538;8.352;2022-10-31T11:43:22;18.10;99.90
10536;DHT22;5316;49.538;8.352;2022-10-31T11:45:50;18.10;99.90
10536;DHT22;5316;49.538;8.352;2022-10-31T11:48:24;18.00;99.90
10536;DHT22;5316;49.538;8.352;2022-10-31T11:50:54;18.00;99.90
10536;DHT22;5316;49.538;8.352;2022-10-31T11:53:26;18.10;99.90
10536;DHT22;5316;49.538;8.352;2022-10-31T11:56:06;18.10;99.90
10536;DHT22;5316;49.538;8.352;2022-10-31T11:58:36;18.10;99.90
10536;DHT22;5316;49.538;8.352;2022-10-31T12:01:02;18.10;99.90
10536;DHT22;5316;49.538;8.352;2022-10-31T12:03:41;18.00;99.90
10536;DHT22;5316;49.538;8.352;2022-10-31T12:06:13;17.90;99.90
10536;DHT22;5316;49.538;8.352;2022-10-31T12:08:43;17.90;99.90
10536;DHT22;5316;49.538;8.352;2022-10-31T12:11:23;17.80;99.90
10536;DHT22;5316;49.538;8.352;2022-10-31T12:14:07;17.80;99.90
10536;DHT22;5316;49.538;8.352;2022-10-31T12:16:39;17.80;99.90
10536;DHT22;5316;49.538;8.352;2022-10-31T12:19:16;17.90;99.90
10536;DHT22;5316;49.538;8.352;2022-10-31T12:22:01;18.00;99.90
10536;DHT22;5316;49.538;8.352;2022-10-31T12:24:43;18.10;99.90
10536;DHT22;5316;49.538;8.352;2022-10-31T12:27:21;18.40;99.90
10536;DHT22;5316;49.538;8.352;2022-10-31T12:30:06;18.20;99.90
10536;DHT22;5316;49.538;8.352;2022-10-31T12:32:43;18.20;99.90
10536;DHT22;5316;49.538;8.352;2022-10-31T12:35:33;18.20;99.90
10536;DHT22;5316;49.538;8.352;2022-10-31T12:38:15;18.10;99.90
10536;DHT22;5316;49.538;8.352;2022-10-31T12:40:53;18.00;99.90
10536;DHT22;5316;49.538;8.352;2022-10-31T12:43:35;18.00;99.90
10536;DHT22;5316;49.538;8.352;2022-10-31T12:46:04;18.00;99.90
10536;DHT22;5316;49.538;8.352;2022-10-31T12:48:45;18.00;99.90
10536;DHT22;5316;49.538;8.352;2022-10-31T12:51:23;18.00;99.90
10536;DHT22;5316;49.538;8.352;2022-10-31T12:54:09;18.00;99.90
10536;DHT22;5316;49.538;8.352;2022-10-31T12:56:47;18.10;99.90
10536;DHT22;5316;49.538;8.352;2022-10-31T12:59:20;18.10;99.90
10536;DHT22;5316;49.538;8.352;2022-10-31T13:01:50;18.20;99.90
10536;DHT22;5316;49.538;8.352;2022-10-31T13:04:23;18.20;99.90
10536;DHT22;5316;49.538;8.352;2022-10-31T13:06:55;18.20;99.90
10536;DHT22;5316;49.538;8.352;2022-10-31T13:09:28;18.20;99.90
10536;DHT22;5316;49.538;8.352;2022-10-31T13:11:59;18.20;99.90
10536;DHT22;5316;49.538;8.352;2022-10-31T13:14:33;18.20;99.90
10536;DHT22;5316;49.538;8.352;2022-10-31T13:17:02;18.30;99.90
10536;DHT22;5316;49.538;8.352;2022-10-31T13:19:33;18.20;99.90
10536;DHT22;5316;49.538;8.352;2022-10-31T13:22:04;18.30;99.90
10536;DHT22;5316;49.538;8.352;2022-10-31T13:24:36;18.20;99.90
10536;DHT22;5316;49.538;8.352;2022-10-31T13:27:11;18.20;99.90
10536;DHT22;5316;49.538;8.352;2022-10-31T13:29:42;18.30;99.90
10536;DHT22;5316;49.538;8.352;2022-10-31T13:32:12;18.30;99.90
10536;DHT22;5316;49.538;8.352;2022-10-31T13:34:42;18.30;99.90
10536;DHT22;5316;49.538;8.352;2022-10-31T13:37:18;18.30;99.90
10536;DHT22;5316;49.538;8.352;2022-10-31T13:39:58;18.40;99.90
10536;DHT22;5316;49.538;8.352;2022-10-31T13:42:39;18.50;99.90
10536;DHT22;5316;49.538;8.352;2022-10-31T13:45:12;18.90;99.90
10536;DHT22;5316;49.538;8.352;2022-10-31T13:47:41;19.40;99.90
10536;DHT22;5316;49.538;8.352;2022-10-31T13:50:20;19.70;99.90
10536;DHT22;5316;49.538;8.352;2022-10-31T13:52:48;20.00;99.90
10536;DHT22;5316;49.538;8.352;2022-10-31T13:55:35;20.00;99.90
10536;DHT22;5316;49.538;8.352;2022-10-31T13:58:04;19.90;99.90
10536;DHT22;5316;49.538;8.352;2022-10-31T14:00:31;19.80;99.90
10536;DHT22;5316;49.538;8.352;2022-10-31T14:03:00;20.00;99.90
10536;DHT22;5316;49.538;8.352;2022-10-31T14:05:29;20.10;99.90
10536;DHT22;5316;49.538;8.352;2022-10-31T14:08:00;20.20;99.90
10536;DHT22;5316;49.538;8.352;2022-10-31T14:10:29;20.40;99.90
10536;DHT22;5316;49.538;8.352;2022-10-31T14:13:06;20.70;99.90
10536;DHT22;5316;49.538;8.352;2022-10-31T14:15:36;20.90;99.90
10536;DHT22;5316;49.538;8.352;2022-10-31T14:18:05;20.90;99.90
10536;DHT22;5316;49.538;8.352;2022-10-31T14:20:37;21.00;99.90
10536;DHT22;5316;49.538;8.352;2022-10-31T14:23:32;21.00;99.90
10536;DHT22;5316;49.538;8.352;2022-10-31T14:26:20;20.40;99.90
10536;DHT22;5316;49.538;8.352;2022-10-31T14:29:25;20.00;99.90
10536;DHT22;5316;49.538;8.352;2022-10-31T14:31:54;19.80;99.90
10536;DHT22;5316;49.538;8.352;2022-10-31T14:34:27;19.60;99.90
10536;DHT22;5316;49.538;8.352;2022-10-31T14:37:16;19.50;99.90
10536;DHT22;5316;49.538;8.352;2022-10-31T14:40:02;19.30;99.90
10536;DHT22;5316;49.538;8.352;2022-10-31T14:42:41;19.10;99.90
10536;DHT22;5316;49.538;8.352;2022-10-31T14:45:25;19.00;99.90
10536;DHT22;5316;49.538;8.352;2022-10-31T14:48:10;18.90;99.90
10536;DHT22;5316;49.538;8.352;2022-10-31T14:50:43;18.70;99.90
10536;DHT22;5316;49.538;8.352;2022-10-31T14:53:19;18.60;99.90
10536;DHT22;5316;49.538;8.352;2022-10-31T14:55:51;18.50;99.90
10536;DHT22;5316;49.538;8.352;2022-10-31T14:58:21;18.40;99.90
10536;DHT22;5316;49.538;8.352;2022-10-31T15:00:50;18.40;99.90
10536;DHT22;5316;49.538;8.352;2022-10-31T15:03:23;18.30;99.90
10536;DHT22;5316;49.538;8.352;2022-10-31T15:05:54;18.20;99.90
10536;DHT22;5316;49.538;8.352;2022-10-31T15:08:32;18.20;99.90
10536;DHT22;5316;49.538;8.352;2022-10-31T15:11:09;18.20;99.90
10536;DHT22;5316;49.538;8.352;2022-10-31T15:13:42;18.10;99.90
10536;DHT22;5316;49.538;8.352;2022-10-31T15:16:11;18.10;99.90
10536;DHT22;5316;49.538;8.352;2022-10-31T15:18:46;18.00;99.90
10536;DHT22;5316;49.538;8.352;2022-10-31T15:21:15;18.00;99.90
10536;DHT22;5316;49.538;8.352;2022-10-31T15:23:42;17.90;99.90
10536;DHT22;5316;49.538;8.352;2022-10-31T15:26:17;17.90;99.90
10536;DHT22;5316;49.538;8.352;2022-10-31T15:28:45;17.80;99.90
10536;DHT22;5316;49.538;8.352;2022-10-31T15:31:16;17.80;99.90
10536;DHT22;5316;49.538;8.352;2022-10-31T15:33:47;17.80;99.90
10536;DHT22;5316;49.538;8.352;2022-10-31T15:36:19;17.70;99.90
10536;DHT22;5316;49.538;8.352;2022-10-31T15:38:47;17.60;99.90
10536;DHT22;5316;49.538;8.352;2022-10-31T15:41:27;17.60;99.90
10536;DHT22;5316;49.538;8.352;2022-10-31T15:44:11;17.50;99.90
10536;DHT22;5316;49.538;8.352;2022-10-31T15:46:38;17.50;99.90
10536;DHT22;5316;49.538;8.352;2022-10-31T15:49:28;17.50;99.90
10536;DHT22;5316;49.538;8.352;2022-10-31T15:51:56;17.50;99.90
10536;DHT22;5316;49.538;8.352;2022-10-31T15:54:25;17.40;99.90
10536;DHT22;5316;49.538;8.352;2022-10-31T15:56:53;17.40;99.90
10536;DHT22;5316;49.538;8.352;2022-10-31T15:59:22;17.30;99.90
10536;DHT22;5316;49.538;8.352;2022-10-31T16:02:00;17.20;99.90
10536;DHT22;5316;49.538;8.352;2022-10-31T16:04:27;17.10;99.90
10536;DHT22;5316;49.538;8.352;2022-10-31T16:07:00;17.00;99.90
10536;DHT22;5316;49.538;8.352;2022-10-31T16:09:27;17.00;99.90
10536;DHT22;5316;49.538;8.352;2022-10-31T16:11:56;16.90;99.90
10536;DHT22;5316;49.538;8.352;2022-10-31T16:14:26;16.80;99.90
10536;DHT22;5316;49.538;8.352;2022-10-31T16:16:55;16.70;99.90
10536;DHT22;5316;49.538;8.352;2022-10-31T16:19:25;16.60;99.90
10536;DHT22;5316;49.538;8.352;2022-10-31T16:21:55;16.60;99.90
10536;DHT22;5316;49.538;8.352;2022-10-31T16:24:25;16.50;99.90
10536;DHT22;5316;49.538;8.352;2022-10-31T16:27:21;16.40;99.90
10536;DHT22;5316;49.538;8.352;2022-10-31T16:30:30;16.40;99.90
10536;DHT22;5316;49.538;8.352;2022-10-31T16:32:59;16.40;99.90
10536;DHT22;5316;49.538;8.352;2022-10-31T16:35:31;16.30;99.90
10536;DHT22;5316;49.538;8.352;2022-10-31T16:37:58;16.30;99.90
10536;DHT22;5316;49.538;8.352;2022-10-31T16:40:25;16.30;99.90
10536;DHT22;5316;49.538;8.352;2022-10-31T16:42:53;16.30;99.90
10536;DHT22;5316;49.538;8.352;2022-10-31T16:45:23;16.20;99.90